Schedule Details


Flight Number: CTN301
Departure: Cilipi (LDDU) at 21:05
Arrival: Franjo Tudman (LDZA) at 22:00
Route: MADOS L187 VRANA UL187 KOMAR L187 TEBLI

Weather Information
LDDU 112200Z 09012KT CAVOK 18/12 Q1011
LDZA 112200Z 24014KT 200V280 CAVOK 20/11 Q1007 BECMG 24008KT
Schedule Frequency

Route Map